Time;durP1;ratioP1;P1;durP2;ratioP2;P2;SDS_P1;SDS_P2;PMS_P1;PMS_P2;Temp;Humidity;BMP_temperature;BMP_pressure;BME280_temperature;BME280_humidity;BME280_pressure;Samples;Min_cycle;Max_cycle;Signal;HPM_P1;HPM_P2
2022/08/15 00:01:30;;;;;;;2.57;2.37;;;25.90;51.70;;;;;;5026140;28;20046;-59
2022/08/15 00:04:01;;;;;;;2.70;2.45;;;25.80;51.70;;;;;;5022090;28;20042;-59
2022/08/15 00:06:40;;;;;;;3.30;3.00;;;25.80;51.70;;;;;;5027809;28;20304;-59
2022/08/15 00:09:14;;;;;;;2.50;2.30;;;25.90;51.80;;;;;;5027405;28;20038;-59
2022/08/15 00:11:44;;;;;;;2.60;2.40;;;25.80;51.70;;;;;;5027642;28;20053;-59
2022/08/15 00:14:19;;;;;;;3.47;3.17;;;25.80;51.70;;;;;;5027541;28;20215;-60
2022/08/15 00:17:01;;;;;;;2.83;2.60;;;25.80;51.70;;;;;;5027245;28;20431;-59
2022/08/15 00:19:44;;;;;;;2.72;2.53;;;25.80;51.80;;;;;;5027339;28;20049;-59
2022/08/15 00:22:17;;;;;;;2.60;2.40;;;25.80;51.80;;;;;;5027506;28;20049;-59
2022/08/15 00:24:50;;;;;;;2.80;2.55;;;25.80;51.80;;;;;;5027652;28;20045;-59
2022/08/15 00:27:20;;;;;;;3.17;2.88;;;25.80;51.80;;;;;;5027104;28;20050;-59
2022/08/15 00:29:53;;;;;;;2.58;2.38;;;25.80;51.80;;;;;;5027329;28;20265;-59
2022/08/15 00:32:26;;;;;;;2.60;2.40;;;25.80;51.90;;;;;;5027009;28;20487;-59
2022/08/15 00:38:12;;;;;;;2.67;2.47;;;25.80;51.90;;;;;;5026892;28;20190;-59
2022/08/15 00:43:51;;;;;;;2.55;2.35;;;25.80;51.90;;;;;;5026747;28;20049;-59
2022/08/15 00:46:20;;;;;;;3.30;3.00;;;25.70;51.90;;;;;;5026786;28;20481;-59
2022/08/15 00:48:50;;;;;;;2.67;2.47;;;25.70;51.90;;;;;;5026715;28;20099;-59
2022/08/15 00:51:29;;;;;;;3.15;2.70;;;25.70;52.30;;;;;;5026654;28;20457;-59
2022/08/15 00:54:08;;;;;;;2.88;2.67;;;25.70;51.90;;;;;;5026769;28;20046;-59
2022/08/15 00:57:16;;;;;;;3.20;2.90;;;25.70;52.00;;;;;;5025730;28;20140;-59
2022/08/15 01:00:20;;;;;;;2.78;2.58;;;25.70;52.00;;;;;;5026686;28;20115;-59
2022/08/15 01:03:09;;;;;;;3.17;2.45;;;25.70;52.00;;;;;;5026713;28;20045;-59
2022/08/15 01:05:45;;;;;;;4.32;2.58;;;25.70;52.10;;;;;;5025001;28;20053;-59
2022/08/15 01:08:16;;;;;;;2.50;2.30;;;25.70;52.00;;;;;;5023465;28;20067;-59
2022/08/15 01:10:47;;;;;;;2.53;2.33;;;25.70;52.10;;;;;;5026203;28;20398;-59
2022/08/15 01:13:32;;;;;;;2.65;2.47;;;25.70;52.00;;;;;;5026263;28;20556;-59
2022/08/15 01:16:21;;;;;;;2.80;2.60;;;25.70;52.10;;;;;;5025817;28;20136;-59
2022/08/15 01:19:06;;;;;;;2.60;2.40;;;25.70;52.10;;;;;;5026034;28;20108;-59
2022/08/15 01:21:43;;;;;;;3.10;2.80;;;25.70;52.10;;;;;;5024544;28;20052;-59
2022/08/15 01:24:37;;;;;;;2.63;2.42;;;25.70;52.10;;;;;;5026466;28;20559;-59
2022/08/15 01:27:29;;;;;;;2.67;2.47;;;25.70;52.10;;;;;;5026473;28;20049;-59
2022/08/15 01:30:07;;;;;;;2.28;2.10;;;25.70;52.10;;;;;;5026427;28;20057;-59
2022/08/15 01:32:56;;;;;;;2.80;2.60;;;25.70;52.10;;;;;;5025790;28;20115;-62
2022/08/15 01:35:24;;;;;;;2.72;2.53;;;25.70;52.10;;;;;;5026195;28;20107;-59
2022/08/15 01:37:53;;;;;;;2.92;2.72;;;25.70;52.10;;;;;;5022179;28;20084;-59
2022/08/15 01:40:50;;;;;;;2.70;2.50;;;25.70;52.10;;;;;;5025484;28;20301;-59
2022/08/15 01:43:26;;;;;;;2.20;2.10;;;25.70;52.10;;;;;;5025884;28;20054;-59
2022/08/15 01:45:58;;;;;;;2.80;2.60;;;25.70;52.10;;;;;;5025406;28;20132;-59
2022/08/15 01:48:34;;;;;;;2.30;2.20;;;25.70;52.10;;;;;;5025376;28;20080;-59
2022/08/15 01:51:06;;;;;;;2.33;2.13;;;25.70;52.10;;;;;;5025830;28;20064;-59
2022/08/15 01:53:42;;;;;;;2.50;2.30;;;25.60;52.10;;;;;;5025289;28;20053;-59
2022/08/15 01:56:19;;;;;;;2.60;2.40;;;25.60;52.10;;;;;;5024612;28;20547;-59
2022/08/15 01:59:04;;;;;;;2.60;2.40;;;25.70;52.20;;;;;;5026302;28;20495;-62
2022/08/15 02:01:45;;;;;;;3.03;2.72;;;25.60;52.10;;;;;;5026861;28;20104;-59
2022/08/15 02:04:15;;;;;;;2.75;2.55;;;25.60;52.10;;;;;;5026913;28;20561;-59
2022/08/15 02:06:52;;;;;;;2.30;2.10;;;25.70;52.20;;;;;;5026512;28;20053;-59
2022/08/15 02:09:23;;;;;;;2.67;2.47;;;25.60;52.20;;;;;;5024584;28;20080;-59
2022/08/15 02:12:08;;;;;;;2.45;2.25;;;25.60;52.10;;;;;;5025552;28;20602;-60
2022/08/15 02:14:58;;;;;;;2.97;2.67;;;25.60;52.20;;;;;;5026750;28;20140;-59
2022/08/15 02:17:25;;;;;;;2.42;2.22;;;25.60;52.20;;;;;;5025380;28;20448;-59
2022/08/15 02:19:58;;;;;;;2.60;2.40;;;25.60;52.20;;;;;;5026042;28;20049;-60
2022/08/15 02:22:28;;;;;;;2.40;2.25;;;25.60;52.20;;;;;;5026630;28;20052;-59
2022/08/15 02:24:58;;;;;;;2.45;2.25;;;25.60;52.20;;;;;;5025910;28;20103;-59
2022/08/15 02:27:28;;;;;;;2.17;2.08;;;25.60;52.20;;;;;;5027257;28;20135;-59
2022/08/15 02:29:55;;;;;;;;;;;25.60;52.20;;;;;;5026276;28;20045;-59
2022/08/15 02:32:23;;;;;;;2.53;2.33;;;25.60;52.20;;;;;;5026816;28;20156;-59
2022/08/15 02:34:57;;;;;;;2.80;2.60;;;25.60;52.20;;;;;;5026144;28;20056;-59
2022/08/15 02:37:24;;;;;;;3.35;2.40;;;25.60;52.20;;;;;;5026186;28;20100;-59
2022/08/15 02:39:53;;;;;;;2.83;2.63;;;25.60;52.20;;;;;;5026504;28;20053;-59
2022/08/15 02:42:42;;;;;;;3.22;2.85;;;25.60;52.30;;;;;;5021647;28;20124;-59
2022/08/15 02:45:14;;;;;;;3.05;2.75;;;25.60;52.30;;;;;;5026323;28;20058;-60
2022/08/15 02:47:43;;;;;;;2.60;2.40;;;25.50;52.20;;;;;;5026098;28;20103;-60
2022/08/15 02:50:14;;;;;;;2.50;2.30;;;25.50;52.20;;;;;;5026166;28;20049;-61
2022/08/15 02:52:47;;;;;;;2.42;2.28;;;25.50;52.20;;;;;;5027249;28;20088;-59
2022/08/15 02:55:20;;;;;;;2.38;2.17;;;25.60;52.30;;;;;;5029731;28;20468;-59
2022/08/15 02:57:51;;;;;;;2.30;2.17;;;25.50;52.30;;;;;;5029958;28;20049;-59
2022/08/15 03:00:29;;;;;;;2.20;2.10;;;25.50;52.30;;;;;;5029437;28;20269;-59
2022/08/15 03:03:05;;;;;;;2.58;2.38;;;25.50;52.30;;;;;;5030197;28;20045;-59
2022/08/15 03:05:35;;;;;;;2.40;2.22;;;25.50;52.30;;;;;;5030029;28;20080;-59
2022/08/15 03:08:04;;;;;;;2.53;2.33;;;25.50;52.30;;;;;;5029024;28;20146;-59
2022/08/15 03:10:32;;;;;;;2.30;2.13;;;25.50;52.30;;;;;;5030031;28;20056;-60
2022/08/15 03:13:10;;;;;;;2.75;2.55;;;25.50;52.30;;;;;;5023709;28;20127;-60
2022/08/15 03:15:45;;;;;;;2.60;2.40;;;25.50;52.30;;;;;;5028782;28;20107;-60
2022/08/15 03:18:26;;;;;;;2.53;2.30;;;25.50;52.30;;;;;;5029378;28;20056;-59
2022/08/15 03:21:05;;;;;;;2.10;2.00;;;25.50;52.30;;;;;;5029801;28;20044;-60
2022/08/15 03:23:33;;;;;;;2.13;2.03;;;25.50;52.30;;;;;;5029736;28;20083;-59
2022/08/15 03:26:10;;;;;;;2.85;2.65;;;25.50;52.30;;;;;;5029282;28;20042;-59
2022/08/15 03:28:59;;;;;;;2.53;2.33;;;25.50;52.30;;;;;;5030233;28;20103;-59
2022/08/15 03:31:33;;;;;;;2.45;2.25;;;25.50;52.30;;;;;;5029100;28;20045;-60
2022/08/15 03:34:12;;;;;;;;;;;25.50;52.30;;;;;;5030807;28;20041;-59
2022/08/15 03:36:45;;;;;;;2.38;2.20;;;25.50;52.30;;;;;;5033277;28;20131;-59
2022/08/15 03:39:19;;;;;;;2.38;2.15;;;25.50;52.30;;;;;;5041754;28;20141;-60
2022/08/15 03:41:47;;;;;;;2.58;2.38;;;25.50;52.30;;;;;;5031315;28;20257;-60
2022/08/15 03:44:23;;;;;;;2.58;2.35;;;25.50;52.30;;;;;;5037710;28;20123;-60
2022/08/15 03:46:54;;;;;;;2.80;2.58;;;25.50;52.30;;;;;;5038792;28;20051;-60
2022/08/15 03:49:22;;;;;;;2.17;2.08;;;25.50;52.30;;;;;;5047166;28;20485;-60
2022/08/15 03:52:09;;;;;;;2.47;2.28;;;25.50;52.30;;;;;;5049550;28;20135;-60
2022/08/15 03:54:37;;;;;;;2.55;2.35;;;25.50;52.30;;;;;;5048526;28;20283;-60
2022/08/15 03:57:07;;;;;;;2.08;1.77;;;25.50;52.30;;;;;;5031877;28;20045;-60
2022/08/15 03:59:35;;;;;;;2.30;2.10;;;25.50;52.30;;;;;;5042372;28;20460;-60
2022/08/15 04:02:08;;;;;;;2.80;2.55;;;25.50;52.30;;;;;;5045142;28;20048;-60
2022/08/15 04:04:56;;;;;;;2.03;1.92;;;25.50;52.30;;;;;;5045638;28;20087;-60
2022/08/15 04:07:26;;;;;;;2.20;2.00;;;25.50;52.30;;;;;;5045930;28;20424;-59
2022/08/15 04:10:12;;;;;;;2.50;2.30;;;25.50;52.30;;;;;;5043080;28;20412;-59
2022/08/15 04:13:01;;;;;;;2.60;2.40;;;25.50;52.30;;;;;;5047691;28;20436;-59
2022/08/15 04:15:28;;;;;;;2.05;1.95;;;25.50;52.20;;;;;;5046342;28;20044;-60
2022/08/15 04:17:57;;;;;;;2.70;2.50;;;25.50;52.30;;;;;;5045770;28;20106;-59
2022/08/15 04:20:31;;;;;;;2.55;2.35;;;25.50;52.20;;;;;;5048275;28;20048;-60
2022/08/15 04:22:59;;;;;;;2.33;2.15;;;25.50;52.20;;;;;;5048643;28;20576;-61
2022/08/15 04:25:34;;;;;;;2.57;2.37;;;25.50;52.20;;;;;;5048302;28;20490;-60
2022/08/15 04:28:13;;;;;;;2.80;2.60;;;25.60;52.20;;;;;;5045181;28;20305;-60
2022/08/15 04:31:04;;;;;;;2.03;1.92;;;25.60;52.20;;;;;;5035901;28;20124;-59
2022/08/15 04:33:33;;;;;;;2.45;2.25;;;25.60;52.10;;;;;;5044107;28;20461;-59
2022/08/15 04:36:21;;;;;;;2.60;2.40;;;25.50;52.10;;;;;;5046634;28;20524;-59
2022/08/15 04:38:57;;;;;;;2.50;2.30;;;25.60;52.10;;;;;;5046458;28;20055;-59
2022/08/15 04:41:30;;;;;;;2.75;2.55;;;25.60;52.10;;;;;;5044654;28;20041;-59
2022/08/15 04:44:04;;;;;;;2.50;2.30;;;25.60;52.00;;;;;;5048070;28;20380;-59
2022/08/15 04:46:32;;;;;;;2.58;2.38;;;25.60;52.00;;;;;;5043402;28;20091;-60
2022/08/15 04:48:59;;;;;;;1.98;1.88;;;25.60;52.00;;;;;;5037405;28;20044;-60
2022/08/15 04:51:27;;;;;;;2.45;2.25;;;25.60;52.00;;;;;;5046825;28;20444;-59
2022/08/15 04:54:04;;;;;;;2.42;2.30;;;25.60;51.90;;;;;;5046399;28;20349;-59
2022/08/15 04:56:31;;;;;;;2.90;2.70;;;25.70;51.90;;;;;;5045196;28;20440;-60
2022/08/15 04:59:19;;;;;;;2.40;2.20;;;25.70;51.90;;;;;;5030178;28;20095;-59
2022/08/15 05:02:03;;;;;;;2.55;2.35;;;25.70;51.90;;;;;;5045669;28;20037;-59
2022/08/15 05:04:50;;;;;;;3.28;2.97;;;25.70;51.80;;;;;;5048068;28;20430;-59
2022/08/15 05:07:18;;;;;;;2.67;2.47;;;25.70;51.70;;;;;;5047246;28;20052;-60
2022/08/15 05:09:45;;;;;;;3.22;2.92;;;25.70;51.80;;;;;;5047779;28;20053;-59
2022/08/15 05:12:30;;;;;;;3.10;2.80;;;25.70;51.90;;;;;;5041068;28;20053;-60
2022/08/15 05:15:15;;;;;;;3.83;3.20;;;25.70;52.10;;;;;;5032831;28;20144;-60
2022/08/15 05:17:45;;;;;;;4.85;3.50;;;25.50;52.30;;;;;;5043789;28;20044;-60
2022/08/15 05:20:25;;;;;;;4.88;4.40;;;25.40;52.80;;;;;;5040630;28;20044;-64
2022/08/15 05:22:58;;;;;;;6.43;5.38;;;25.10;53.20;;;;;;5039091;28;20098;-65
2022/08/15 05:25:31;;;;;;;6.25;5.22;;;25.00;53.40;;;;;;5036577;28;20056;-66
2022/08/15 05:28:00;;;;;;;6.25;5.65;;;24.80;52.70;;;;;;5035650;28;20525;-65
2022/08/15 05:30:49;;;;;;;7.47;5.72;;;24.60;52.60;;;;;;5038705;28;20136;-66
2022/08/15 05:33:27;;;;;;;12.45;7.05;;;24.30;52.10;;;;;;5034716;28;20167;-66
2022/08/15 05:36:17;;;;;;;5.90;5.30;;;23.90;52.30;;;;;;5027552;28;20193;-66
2022/08/15 05:39:01;;;;;;;15.35;5.75;;;23.60;52.50;;;;;;5035950;28;20053;-65
2022/08/15 05:41:43;;;;;;;10.07;6.72;;;23.30;53.10;;;;;;5033022;28;20138;-65
2022/08/15 05:44:28;;;;;;;;;;;23.00;53.20;;;;;;5035556;28;20045;-66
2022/08/15 05:47:33;;;;;;;11.43;6.20;;;22.90;53.10;;;;;;5037254;28;20063;-59
2022/08/15 05:50:27;;;;;;;9.02;6.90;;;22.50;51.00;;;;;;5041498;28;20045;-60
2022/08/15 05:53:27;;;;;;;12.32;6.18;;;22.20;51.50;;;;;;5038898;28;20044;-60
2022/08/15 05:56:15;;;;;;;11.52;6.57;;;21.90;52.80;;;;;;5038617;28;20413;-60
2022/08/15 05:59:01;;;;;;;10.27;6.95;;;21.60;53.80;;;;;;5040794;28;20106;-59
2022/08/15 06:01:35;;;;;;;10.27;7.10;;;21.30;53.60;;;;;;5034130;28;20481;-59
2022/08/15 06:04:25;;;;;;;9.55;6.20;;;21.10;54.10;;;;;;5034307;28;20057;-59
2022/08/15 06:07:03;;;;;;;8.38;6.65;;;20.90;54.10;;;;;;5038691;28;20052;-59
2022/08/15 06:09:45;;;;;;;10.77;6.70;;;20.70;55.10;;;;;;5043188;28;20068;-59
2022/08/15 06:12:43;;;;;;;9.32;6.40;;;20.60;55.90;;;;;;5040163;28;20061;-59
2022/08/15 06:15:24;;;;;;;12.45;6.60;;;20.50;56.40;;;;;;5039380;28;20048;-59
2022/08/15 06:18:04;;;;;;;6.82;6.00;;;20.40;56.30;;;;;;5039016;28;20102;-59
2022/08/15 06:21:07;;;;;;;8.45;6.63;;;20.30;56.50;;;;;;5034999;28;20041;-58
2022/08/15 06:24:12;;;;;;;9.40;6.60;;;20.30;56.80;;;;;;5033250;28;20045;-62
2022/08/15 06:27:19;;;;;;;10.13;7.28;;;20.20;57.30;;;;;;5034626;28;20044;-62
2022/08/15 06:30:14;;;;;;;9.23;6.85;;;20.20;58.20;;;;;;5039903;28;20111;-60
2022/08/15 06:33:06;;;;;;;10.43;6.65;;;20.20;59.60;;;;;;5046613;28;20053;-60
2022/08/15 06:36:06;;;;;;;9.07;6.57;;;20.30;59.80;;;;;;5035495;28;20188;-60
2022/08/15 06:39:02;;;;;;;11.52;6.60;;;20.30;58.60;;;;;;5040882;28;20075;-60
2022/08/15 06:41:48;;;;;;;10.52;7.15;;;20.30;58.40;;;;;;5038285;28;20048;-60
2022/08/15 06:44:18;;;;;;;11.23;7.35;;;20.30;58.40;;;;;;5040570;28;20665;-62
2022/08/15 06:47:04;;;;;;;8.07;5.87;;;20.30;58.10;;;;;;5036406;28;20778;-62
2022/08/15 06:49:37;;;;;;;11.05;6.47;;;20.30;57.80;;;;;;5038938;28;20325;-62
2022/08/15 06:52:06;;;;;;;7.47;6.10;;;20.20;57.90;;;;;;5035839;28;20555;-62
2022/08/15 06:54:44;;;;;;;7.75;6.90;;;20.20;57.70;;;;;;5034160;28;20135;-62
2022/08/15 06:57:31;;;;;;;8.98;6.28;;;20.10;57.70;;;;;;5038591;28;20081;-61
2022/08/15 07:00:33;;;;;;;10.35;6.15;;;20.00;57.80;;;;;;5037935;28;20490;-63
2022/08/15 07:03:41;;;;;;;9.70;6.70;;;19.90;57.90;;;;;;5039303;28;20457;-60
2022/08/15 07:06:12;;;;;;;10.88;6.75;;;19.80;57.90;;;;;;5038029;28;20091;-62
2022/08/15 07:09:07;;;;;;;9.55;6.45;;;19.80;58.80;;;;;;5040755;28;20144;-63
2022/08/15 07:11:54;;;;;;;14.05;7.15;;;19.80;59.60;;;;;;5039991;28;20048;-62
2022/08/15 07:14:34;;;;;;;8.75;6.70;;;19.80;59.80;;;;;;5037620;28;20485;-62
2022/08/15 07:17:12;;;;;;;7.70;6.63;;;19.80;60.40;;;;;;5035891;28;22578;-62
2022/08/15 07:19:42;;;;;;;11.27;7.18;;;19.80;60.40;;;;;;5034931;28;20075;-61
2022/08/15 07:22:26;;;;;;;10.18;6.95;;;19.80;60.80;;;;;;5035822;28;20147;-63
2022/08/15 07:25:10;;;;;;;8.82;6.70;;;20.00;60.70;;;;;;5030483;28;20045;-63
2022/08/15 07:27:38;;;;;;;6.93;5.57;;;20.00;61.10;;;;;;5033741;28;20053;-63
2022/08/15 07:30:26;;;;;;;7.90;6.45;;;20.00;61.00;;;;;;5038510;28;20843;-63
2022/08/15 07:32:57;;;;;;;7.45;5.40;;;20.10;61.10;;;;;;5038168;28;20037;-65
2022/08/15 07:35:32;;;;;;;9.77;6.40;;;20.10;60.50;;;;;;5042910;28;20053;-64
2022/08/15 07:38:05;;;;;;;6.65;5.97;;;20.20;60.90;;;;;;5035912;28;20041;-64
2022/08/15 07:41:17;;;;;;;6.82;5.90;;;20.20;60.70;;;;;;5042693;28;20047;-63
2022/08/15 07:43:47;;;;;;;7.25;6.28;;;20.30;61.00;;;;;;5044676;28;20077;-63
2022/08/15 07:46:37;;;;;;;6.97;5.47;;;20.30;60.90;;;;;;5039610;28;20053;-64
2022/08/15 07:49:27;;;;;;;8.10;6.38;;;20.40;60.70;;;;;;5036095;28;20044;-64
2022/08/15 07:52:17;;;;;;;11.23;6.35;;;20.40;60.70;;;;;;5040461;28;20645;-61
2022/08/15 07:55:18;;;;;;;10.45;5.20;;;20.50;60.70;;;;;;5037194;28;20476;-61
2022/08/15 07:58:18;;;;;;;;;;;20.60;60.50;;;;;;5033667;28;20095;-61
2022/08/15 08:01:27;;;;;;;7.35;5.65;;;20.60;60.30;;;;;;5040867;28;19921;-61
2022/08/15 08:04:09;;;;;;;8.60;5.65;;;20.60;60.40;;;;;;5035640;28;20052;-61
2022/08/15 08:07:04;;;;;;;5.97;4.63;;;20.60;60.30;;;;;;5038421;28;20060;-64
2022/08/15 08:09:48;;;;;;;7.40;6.22;;;20.60;60.60;;;;;;5041786;28;20084;-63
2022/08/15 08:12:53;;;;;;;6.95;5.55;;;20.70;60.60;;;;;;5035051;28;20049;-61
2022/08/15 08:15:54;;;;;;;5.63;5.03;;;20.70;60.80;;;;;;5034030;28;20511;-62
2022/08/15 08:18:59;;;;;;;7.60;5.35;;;20.80;60.80;;;;;;5039161;28;20533;-63
2022/08/15 08:22:06;;;;;;;8.30;5.70;;;20.80;60.80;;;;;;5039922;28;20106;-60
2022/08/15 08:25:02;;;;;;;6.82;5.20;;;20.80;60.80;;;;;;5035030;28;20045;-63
2022/08/15 08:28:08;;;;;;;6.43;5.47;;;20.80;60.60;;;;;;5037995;28;20053;-62
2022/08/15 08:30:54;;;;;;;8.15;5.38;;;20.90;60.80;;;;;;5028919;28;20049;-63
2022/08/15 08:33:38;;;;;;;8.57;5.65;;;20.90;60.80;;;;;;5034036;28;20053;-63
2022/08/15 08:36:28;;;;;;;6.25;5.30;;;20.90;60.80;;;;;;5031252;28;20517;-62
2022/08/15 08:39:30;;;;;;;6.53;5.10;;;20.90;60.70;;;;;;5027785;28;20559;-63
2022/08/15 08:42:24;;;;;;;8.10;5.82;;;21.00;60.80;;;;;;5037746;28;20090;-61
2022/08/15 08:45:21;;;;;;;8.10;5.28;;;21.00;60.90;;;;;;5043503;28;20143;-62
2022/08/15 08:48:28;;;;;;;6.20;5.60;;;21.10;60.90;;;;;;5041024;28;20099;-62
2022/08/15 08:51:08;;;;;;;6.80;5.80;;;21.10;60.60;;;;;;5038056;28;20441;-63
2022/08/15 08:54:01;;;;;;;4.72;4.30;;;21.20;60.50;;;;;;5042739;28;20057;-61
2022/08/15 08:56:47;;;;;;;5.88;4.60;;;21.20;60.70;;;;;;5036599;28;20044;-64
2022/08/15 08:59:25;;;;;;;7.53;5.07;;;21.20;60.50;;;;;;5035140;28;20053;-66
2022/08/15 09:02:02;;;;;;;6.68;4.75;;;21.20;60.50;;;;;;5038307;28;20473;-63
2022/08/15 09:04:42;;;;;;;6.65;5.47;;;21.20;60.50;;;;;;5037930;28;20119;-64
2022/08/15 09:07:28;;;;;;;7.60;4.85;;;21.20;60.20;;;;;;5062213;28;20044;-64
2022/08/15 09:10:00;;;;;;;7.28;5.35;;;21.20;60.10;;;;;;5036147;28;20069;-67
2022/08/15 09:15:30;;;;;;;5.68;4.72;;;21.30;59.60;;;;;;5036086;28;20073;-63
2022/08/15 09:18:25;;;;;;;5.43;4.63;;;21.30;59.60;;;;;;5031281;28;20135;-65
2022/08/15 09:20:53;;;;;;;;;;;21.30;59.50;;;;;;5040417;28;20083;-65
2022/08/15 09:23:21;;;;;;;5.13;4.45;;;21.20;59.70;;;;;;5041271;28;20035;-64
2022/08/15 09:26:26;;;;;;;5.43;4.60;;;21.20;59.60;;;;;;5036303;28;20057;-64
2022/08/15 09:29:22;;;;;;;5.25;4.53;;;21.20;59.50;;;;;;5044962;28;20425;-61
2022/08/15 09:32:24;;;;;;;5.22;4.72;;;21.20;61.90;;;;;;5040997;28;20041;-61
2022/08/15 09:35:29;;;;;;;6.35;5.25;;;21.30;62.50;;;;;;5035994;28;20497;-61
2022/08/15 09:38:24;;;;;;;7.32;4.90;;;21.50;62.10;;;;;;5037346;28;20485;-61
2022/08/15 09:41:25;;;;;;;4.57;4.10;;;21.60;61.60;;;;;;5036962;28;20057;-61
2022/08/15 09:44:23;;;;;;;4.68;4.13;;;21.70;61.20;;;;;;5040002;28;20057;-62
2022/08/15 09:47:31;;;;;;;5.55;4.78;;;21.80;60.80;;;;;;5039813;28;20486;-61
2022/08/15 09:51:00;;;;;;;6.25;4.90;;;21.90;60.30;;;;;;5036952;28;20506;-66
2022/08/15 09:53:54;;;;;;;6.53;4.47;;;21.90;60.20;;;;;;5025037;28;20413;-61
2022/08/15 09:56:32;;;;;;;4.57;4.13;;;21.90;60.10;;;;;;5039736;28;20065;-61
2022/08/15 09:59:22;;;;;;;6.50;4.68;;;21.90;60.10;;;;;;5036555;28;20053;-61
2022/08/15 10:02:00;;;;;;;7.00;4.90;;;22.00;59.90;;;;;;5038068;28;20085;-62
2022/08/15 10:05:23;;;;;;;5.57;4.80;;;22.00;59.80;;;;;;5035428;28;20097;-61
2022/08/15 10:07:59;;;;;;;5.60;4.78;;;22.00;59.60;;;;;;5028816;28;20044;-61
2022/08/15 10:10:53;;;;;;;5.85;4.25;;;22.00;59.60;;;;;;5059814;28;20033;-62
2022/08/15 10:13:45;;;;;;;6.88;4.82;;;22.00;59.60;;;;;;5036539;28;20102;-61
2022/08/15 10:16:45;;;;;;;5.68;4.53;;;22.10;59.50;;;;;;5040274;28;20048;-62
2022/08/15 10:19:35;;;;;;;5.88;4.80;;;22.10;59.30;;;;;;5037976;28;20143;-62
2022/08/15 10:23:00;;;;;;;6.90;4.30;;;22.10;59.30;;;;;;5028114;28;20403;-62
2022/08/15 10:25:36;;;;;;;8.20;4.78;;;22.00;59.10;;;;;;5033051;28;20294;-62
2022/08/15 10:28:23;;;;;;;5.20;4.68;;;22.00;59.10;;;;;;5040873;28;20061;-62
2022/08/15 10:31:26;;;;;;;7.32;5.38;;;22.00;59.20;;;;;;5037451;28;20399;-62
2022/08/15 10:34:38;;;;;;;6.85;4.38;;;22.00;59.00;;;;;;5040721;28;20045;-63
2022/08/15 10:37:51;;;;;;;5.57;4.57;;;22.00;58.80;;;;;;5028818;28;20053;-63
2022/08/15 10:40:52;;;;;;;5.82;4.43;;;22.00;58.80;;;;;;5035098;28;20463;-62
2022/08/15 10:43:46;;;;;;;5.53;4.25;;;22.00;58.70;;;;;;5032925;28;20127;-63
2022/08/15 10:46:36;;;;;;;8.25;4.80;;;22.00;58.80;;;;;;5033749;28;20080;-63
2022/08/15 10:49:48;;;;;;;7.68;4.28;;;22.00;58.50;;;;;;5032804;28;20064;-63
2022/08/15 10:52:50;;;;;;;5.57;4.35;;;21.90;58.50;;;;;;5039275;28;20485;-63
2022/08/15 10:55:34;;;;;;;5.00;4.10;;;22.00;58.50;;;;;;5037567;28;20055;-63
2022/08/15 10:58:32;;;;;;;7.47;4.72;;;22.00;58.50;;;;;;5037972;28;20055;-63
2022/08/15 11:01:10;;;;;;;6.32;4.55;;;22.00;58.40;;;;;;5038352;28;20048;-63
2022/08/15 11:03:55;;;;;;;5.47;4.38;;;22.00;58.40;;;;;;5035582;28;20044;-62
2022/08/15 11:06:48;;;;;;;5.78;4.70;;;22.00;58.30;;;;;;5044062;28;20131;-63
2022/08/15 11:09:23;;;;;;;5.10;3.97;;;22.10;58.20;;;;;;5035312;28;20045;-62
2022/08/15 11:12:05;;;;;;;5.60;5.00;;;22.00;58.10;;;;;;5042019;28;20297;-63
2022/08/15 11:14:43;;;;;;;7.63;4.43;;;22.10;58.10;;;;;;5043735;28;20382;-60
2022/08/15 11:17:18;;;;;;;5.20;4.13;;;22.00;58.10;;;;;;5040535;28;20080;-60
2022/08/15 11:19:50;;;;;;;6.72;4.57;;;22.00;58.00;;;;;;5036284;28;20045;-60
2022/08/15 11:23:10;;;;;;;7.03;4.95;;;22.10;58.00;;;;;;5040023;28;20053;-60
2022/08/15 11:25:41;;;;;;;5.55;4.15;;;22.00;57.90;;;;;;5043264;28;20084;-61
2022/08/15 11:28:20;;;;;;;6.80;4.82;;;22.00;58.00;;;;;;5039038;28;20057;-60
2022/08/15 11:31:18;;;;;;;5.57;4.57;;;21.90;58.00;;;;;;5041618;28;21803;-59
2022/08/15 11:33:50;;;;;;;5.38;4.55;;;21.90;57.90;;;;;;5042637;28;20674;-60
2022/08/15 11:36:25;;;;;;;5.40;4.45;;;21.90;57.80;;;;;;5038952;28;20077;-60
2022/08/15 11:39:13;;;;;;;9.38;4.60;;;21.90;57.70;;;;;;5034620;28;20044;-60
2022/08/15 11:41:55;;;;;;;10.85;5.88;;;21.90;57.90;;;;;;5042147;28;20139;-60
2022/08/15 11:44:31;;;;;;;8.20;5.03;;;21.90;57.90;;;;;;5037568;28;20060;-64
2022/08/15 11:47:00;;;;;;;4.57;4.13;;;21.90;57.90;;;;;;5037913;28;20136;-63
2022/08/15 11:49:43;;;;;;;9.88;4.65;;;21.90;58.00;;;;;;5041746;28;20073;-64
2022/08/15 11:52:11;;;;;;;5.95;4.82;;;21.80;57.90;;;;;;5040543;28;20233;-64
2022/08/15 11:55:23;;;;;;;4.82;4.07;;;21.80;56.60;;;;;;5039719;28;20053;-64
2022/08/15 11:58:19;;;;;;;7.00;4.60;;;21.80;56.00;;;;;;5043874;28;20057;-65
2022/08/15 12:00:59;;;;;;;11.85;4.63;;;21.70;56.10;;;;;;5043068;28;20086;-65
2022/08/15 12:03:31;;;;;;;5.35;4.65;;;21.60;56.50;;;;;;5039156;28;20063;-65
2022/08/15 12:06:26;;;;;;;5.47;4.22;;;21.50;56.50;;;;;;5028107;28;20080;-64
2022/08/15 12:09:20;;;;;;;5.20;4.38;;;21.50;56.80;;;;;;5033679;28;20207;-63
2022/08/15 12:12:26;;;;;;;6.93;4.50;;;21.40;56.90;;;;;;5031805;28;20589;-63
2022/08/15 12:15:17;;;;;;;5.63;4.78;;;21.40;57.00;;;;;;5039979;28;20212;-63
2022/08/15 12:18:24;;;;;;;7.28;4.47;;;21.30;56.90;;;;;;5037701;28;20052;-64
2022/08/15 12:21:13;;;;;;;6.38;4.68;;;21.30;57.10;;;;;;5036831;28;20060;-64
2022/08/15 12:23:54;;;;;;;5.82;4.65;;;21.30;57.30;;;;;;5042925;28;20056;-63
2022/08/15 12:26:25;;;;;;;4.60;4.20;;;21.30;57.20;;;;;;5038743;28;20080;-63
2022/08/15 12:29:13;;;;;;;6.25;4.53;;;21.30;57.60;;;;;;5035850;28;20128;-64
2022/08/15 12:31:41;;;;;;;5.10;4.60;;;21.20;57.50;;;;;;5035244;28;20090;-64
2022/08/15 12:34:19;;;;;;;6.28;3.90;;;21.30;57.40;;;;;;5039327;28;20401;-64
2022/08/15 12:37:00;;;;;;;5.57;4.57;;;21.30;57.50;;;;;;5034139;28;20100;-64
2022/08/15 12:39:37;;;;;;;6.30;4.32;;;21.20;57.40;;;;;;5034845;28;20056;-64
2022/08/15 12:42:11;;;;;;;5.30;3.95;;;21.20;57.60;;;;;;5032141;28;20068;-67
2022/08/15 12:45:03;;;;;;;4.70;4.20;;;21.20;57.40;;;;;;5036662;28;20053;-64
2022/08/15 12:47:31;;;;;;;4.93;3.85;;;21.20;57.40;;;;;;5036729;28;20045;-65
2022/08/15 12:50:02;;;;;;;4.75;4.30;;;21.20;57.40;;;;;;5035016;28;20735;-65
2022/08/15 12:52:34;;;;;;;5.22;4.18;;;21.10;57.50;;;;;;5035848;28;20128;-65
2022/08/15 12:55:01;;;;;;;6.80;4.00;;;21.10;57.50;;;;;;5037789;28;20045;-65
2022/08/15 12:57:37;;;;;;;4.45;3.88;;;21.10;57.70;;;;;;5035162;28;20049;-65
2022/08/15 13:00:21;;;;;;;4.50;4.10;;;21.10;57.90;;;;;;5034685;28;20071;-63
2022/08/15 13:03:21;;;;;;;8.32;4.13;;;21.10;57.90;;;;;;5041365;28;20049;-65
2022/08/15 13:06:07;;;;;;;5.65;4.70;;;21.10;58.00;;;;;;5036311;28;20109;-65
2022/08/15 13:08:54;;;;;;;4.85;4.20;;;21.10;57.90;;;;;;5038695;28;20144;-64
2022/08/15 13:11:25;;;;;;;4.50;4.10;;;21.10;57.70;;;;;;5042408;28;20049;-64
2022/08/15 13:13:52;;;;;;;4.60;3.88;;;21.20;57.30;;;;;;5037641;28;20098;-64
2022/08/15 13:16:21;;;;;;;4.90;3.58;;;21.10;57.30;;;;;;5032175;28;20049;-63
2022/08/15 13:19:12;;;;;;;4.20;3.75;;;21.10;57.40;;;;;;5035495;28;20069;-63
2022/08/15 13:24:57;;;;;;;4.60;3.97;;;21.10;57.50;;;;;;5036882;28;20041;-62
2022/08/15 13:27:29;;;;;;;4.28;3.83;;;21.10;57.50;;;;;;5037134;28;20053;-62
2022/08/15 13:29:58;;;;;;;3.50;3.15;;;21.20;57.40;;;;;;5035588;28;20045;-64
2022/08/15 13:32:30;;;;;;;5.72;3.90;;;21.20;57.30;;;;;;5043097;28;20049;-62
2022/08/15 13:34:57;;;;;;;4.18;3.78;;;21.20;57.20;;;;;;5039540;28;20057;-60
2022/08/15 13:37:35;;;;;;;5.22;4.00;;;21.10;57.00;;;;;;5040030;28;20830;-59
2022/08/15 13:40:23;;;;;;;3.83;3.30;;;21.10;57.40;;;;;;5038051;28;20134;-59
2022/08/15 13:43:01;;;;;;;4.13;3.67;;;21.10;56.80;;;;;;5041115;28;20430;-59
2022/08/15 13:45:39;;;;;;;10.45;4.13;;;21.10;56.90;;;;;;5036745;28;20454;-60
2022/08/15 13:48:32;;;;;;;5.72;3.72;;;21.10;56.90;;;;;;5033203;28;20077;-60
2022/08/15 13:51:11;;;;;;;4.72;3.15;;;21.10;57.10;;;;;;5034738;28;20432;-60
2022/08/15 13:53:41;;;;;;;3.55;3.00;;;21.10;57.20;;;;;;5035200;28;20326;-59
2022/08/15 13:56:30;;;;;;;7.40;3.20;;;21.10;57.30;;;;;;5037335;28;20126;-60
2022/08/15 13:59:01;;;;;;;3.83;3.53;;;21.10;57.10;;;;;;5036220;28;20077;-59
2022/08/15 14:01:32;;;;;;;3.38;3.05;;;21.20;57.10;;;;;;5033505;28;20045;-59
2022/08/15 14:04:06;;;;;;;6.65;3.28;;;21.20;56.90;;;;;;5044436;28;20080;-59
2022/08/15 14:06:40;;;;;;;3.90;3.50;;;21.20;57.10;;;;;;5043995;28;20119;-59
2022/08/15 14:09:24;;;;;;;4.97;3.55;;;21.20;57.20;;;;;;5041757;28;20068;-59
2022/08/15 14:12:12;;;;;;;5.50;3.90;;;21.20;57.20;;;;;;5041578;28;20135;-59
2022/08/15 14:14:39;;;;;;;4.82;3.28;;;21.10;57.00;;;;;;5038356;28;20053;-59
2022/08/15 14:17:27;;;;;;;3.42;3.00;;;21.30;56.90;;;;;;5037785;28;20069;-58
2022/08/15 14:20:09;;;;;;;3.50;3.20;;;21.30;57.00;;;;;;5030436;28;20048;-59